Time;durP1;ratioP1;P1;durP2;ratioP2;P2;SDS_P1;SDS_P2;PMS_P1;PMS_P2;Temp;Humidity;BMP_temperature;BMP_pressure;BME280_temperature;BME280_humidity;BME280_pressure;Samples;Min_cycle;Max_cycle;Signal;HPM_P1;HPM_P2
2023/11/23 00:00:42;;;;;;;38.28;16.55;;;7.70;99.90;;;;;;4917547;29;20075;-84
2023/11/23 00:03:09;;;;;;;32.80;16.48;;;7.70;99.90;;;;;;4938514;29;20040;-84
2023/11/23 00:05:36;;;;;;;38.97;16.88;;;8.00;99.90;;;;;;4922351;29;20044;-84
2023/11/23 00:08:03;;;;;;;36.72;16.38;;;8.60;99.90;;;;;;4917465;29;20111;-84
2023/11/23 00:10:29;;;;;;;36.55;16.02;;;7.80;99.90;;;;;;4933031;29;20051;-84
2023/11/23 00:12:56;;;;;;;34.60;16.25;;;8.20;99.90;;;;;;4921295;29;20040;-84
2023/11/23 00:15:23;;;;;;;36.58;16.85;;;7.80;99.90;;;;;;4930860;29;20073;-84
2023/11/23 00:17:49;;;;;;;44.58;16.23;;;7.90;99.90;;;;;;4934577;29;20045;-84
2023/11/23 00:20:16;;;;;;;38.28;16.23;;;7.90;99.90;;;;;;4932955;29;20144;-84
2023/11/23 00:22:43;;;;;;;28.33;15.40;;;7.90;99.90;;;;;;4922394;29;20051;-84
2023/11/23 00:25:13;;;;;;;39.33;16.23;;;8.00;99.90;;;;;;4924248;29;20040;-84
2023/11/23 00:27:40;;;;;;;33.92;14.75;;;8.10;99.90;;;;;;4917140;29;20383;-84
2023/11/23 00:30:07;;;;;;;42.72;16.73;;;8.10;99.90;;;;;;4929807;29;20047;-84
2023/11/23 00:32:34;;;;;;;42.17;15.85;;;8.10;99.90;;;;;;4944980;29;20538;-83
2023/11/23 00:35:00;;;;;;;33.70;15.27;;;8.10;99.90;;;;;;4917650;29;20521;-84
2023/11/23 00:37:28;;;;;;;33.25;15.40;;;8.40;99.90;;;;;;4944429;29;20040;-84
2023/11/23 00:39:55;;;;;;;40.40;17.13;;;8.20;99.90;;;;;;4916868;29;20048;-84
2023/11/23 00:42:22;;;;;;;37.38;16.20;;;8.20;99.90;;;;;;4917011;29;20040;-84
2023/11/23 00:44:48;;;;;;;31.27;14.68;;;8.20;99.90;;;;;;4932549;29;20044;-84
2023/11/23 00:47:15;;;;;;;35.67;15.65;;;8.20;99.90;;;;;;4917056;29;20044;-84
2023/11/23 00:49:41;;;;;;;39.70;15.48;;;8.20;99.90;;;;;;4916509;29;20040;-84
2023/11/23 00:52:09;;;;;;;36.00;15.60;;;8.30;99.90;;;;;;4916805;29;20080;-84
2023/11/23 00:54:39;;;;;;;32.53;15.68;;;8.30;99.90;;;;;;4919823;29;20469;-84
2023/11/23 00:57:06;;;;;;;36.65;15.27;;;8.70;99.90;;;;;;4925371;29;20045;-84
2023/11/23 00:59:33;;;;;;;33.88;15.23;;;9.10;99.90;;;;;;4920624;29;20040;-84
2023/11/23 01:02:01;;;;;;;32.75;15.15;;;9.20;99.90;;;;;;4935009;29;20088;-84
2023/11/23 01:04:28;;;;;;;31.73;13.30;;;8.50;99.90;;;;;;4920067;29;20040;-84
2023/11/23 01:06:55;;;;;;;35.97;14.90;;;8.50;99.90;;;;;;4925818;29;20040;-83
2023/11/23 01:09:22;;;;;;;32.10;13.63;;;8.60;99.90;;;;;;4920089;29;20040;-83
2023/11/23 01:11:51;;;;;;;29.67;12.60;;;8.60;99.90;;;;;;4924982;29;20064;-83
2023/11/23 01:14:17;;;;;;;27.33;12.05;;;8.60;99.90;;;;;;4916267;29;20037;-84
2023/11/23 01:16:45;;;;;;;34.38;12.65;;;8.70;99.90;;;;;;4941215;29;20115;-84
2023/11/23 01:19:13;;;;;;;26.48;13.48;;;8.70;99.90;;;;;;4919316;29;20044;-84
2023/11/23 01:21:39;;;;;;;31.63;11.75;;;8.70;99.90;;;;;;4916492;29;20076;-84
2023/11/23 01:24:08;;;;;;;32.67;12.68;;;8.90;99.90;;;;;;4931664;29;20536;-84
2023/11/23 01:26:34;;;;;;;28.25;13.07;;;8.80;99.90;;;;;;4916419;29;20079;-84
2023/11/23 01:29:01;;;;;;;26.67;12.85;;;8.80;99.90;;;;;;4915762;29;20075;-84
2023/11/23 01:31:29;;;;;;;33.38;14.52;;;9.40;99.90;;;;;;4916040;29;20045;-84
2023/11/23 01:33:55;;;;;;;34.83;14.23;;;8.80;99.90;;;;;;4920295;29;20044;-84
2023/11/23 01:36:22;;;;;;;27.30;13.57;;;8.80;99.90;;;;;;4934617;29;20040;-85
2023/11/23 01:38:48;;;;;;;35.90;14.27;;;8.90;99.90;;;;;;4917139;29;20052;-84
2023/11/23 01:41:15;;;;;;;34.90;15.65;;;8.90;99.90;;;;;;4915795;29;20041;-85
2023/11/23 01:43:45;;;;;;;34.17;15.90;;;9.30;99.90;;;;;;4931970;29;20036;-84
2023/11/23 01:46:12;;;;;;;40.35;16.17;;;8.90;99.90;;;;;;4915627;29;20455;-84
2023/11/23 01:48:42;;;;;;;36.95;17.08;;;9.40;99.90;;;;;;4919564;29;20044;-84
2023/11/23 01:51:12;;;;;;;41.53;18.83;;;9.40;99.90;;;;;;4934559;29;20111;-84
2023/11/23 01:53:41;;;;;;;41.30;20.77;;;9.00;99.90;;;;;;4931501;29;20405;-83
2023/11/23 01:56:09;;;;;;;48.97;22.98;;;9.00;99.90;;;;;;4915665;29;20081;-84
2023/11/23 01:58:36;;;;;;;49.13;23.05;;;9.00;99.90;;;;;;4927502;29;20047;-84
2023/11/23 02:01:04;;;;;;;42.78;21.30;;;9.10;99.90;;;;;;4930772;29;20064;-84
2023/11/23 02:03:31;;;;;;;36.75;16.33;;;9.20;99.90;;;;;;4915503;29;20041;-84
2023/11/23 02:05:58;;;;;;;35.47;15.55;;;9.20;99.90;;;;;;4927921;29;20040;-84
2023/11/23 02:08:24;;;;;;;34.58;14.32;;;9.20;99.90;;;;;;4915670;29;20454;-84
2023/11/23 02:10:51;;;;;;;31.67;13.98;;;9.20;99.90;;;;;;4943352;29;20044;-84
2023/11/23 02:13:18;;;;;;;32.55;13.18;;;9.30;99.90;;;;;;4940383;29;20123;-84
2023/11/23 02:15:44;;;;;;;31.08;13.55;;;9.70;99.90;;;;;;4921610;29;20078;-84
2023/11/23 02:18:11;;;;;;;36.83;13.80;;;9.30;99.90;;;;;;4926245;29;20128;-84
2023/11/23 02:20:42;;;;;;;30.05;11.82;;;9.40;99.90;;;;;;4915525;29;20041;-84
2023/11/23 02:23:09;;;;;;;29.02;10.90;;;9.40;99.90;;;;;;4915091;29;20512;-84
2023/11/23 02:25:35;;;;;;;23.60;9.70;;;10.30;99.90;;;;;;4915290;29;20138;-84
2023/11/23 02:28:05;;;;;;;22.73;9.93;;;9.60;99.90;;;;;;4912215;29;20112;-84
2023/11/23 02:30:32;;;;;;;23.42;8.95;;;9.50;99.90;;;;;;4927768;29;20048;-83
2023/11/23 02:33:01;;;;;;;24.77;8.68;;;9.50;99.90;;;;;;4941040;29;20123;-84
2023/11/23 02:35:28;;;;;;;28.55;9.65;;;9.70;99.90;;;;;;4944982;29;20490;-84
2023/11/23 02:37:54;;;;;;;21.70;7.35;;;9.60;99.90;;;;;;4915024;29;20041;-84
2023/11/23 02:40:21;;;;;;;19.15;5.95;;;9.60;99.90;;;;;;4942952;29;20123;-84
2023/11/23 02:42:48;;;;;;;19.25;6.55;;;10.20;99.90;;;;;;4926304;29;20064;-84
2023/11/23 02:45:14;;;;;;;17.88;5.22;;;9.60;99.90;;;;;;4915968;29;20562;-84
2023/11/23 02:47:41;;;;;;;15.30;4.85;;;10.00;99.90;;;;;;4914512;29;20040;-84
2023/11/23 02:50:11;;;;;;;17.65;5.43;;;9.70;99.90;;;;;;4921245;29;20055;-84
2023/11/23 02:52:38;;;;;;;14.05;4.85;;;9.80;99.90;;;;;;4920926;29;20048;-84
2023/11/23 02:55:05;;;;;;;16.38;4.80;;;9.80;99.90;;;;;;4915269;29;20044;-84
2023/11/23 02:57:32;;;;;;;14.40;4.38;;;9.80;99.90;;;;;;4914663;29;20093;-84
2023/11/23 02:59:58;;;;;;;24.40;6.35;;;9.80;99.90;;;;;;4923120;29;20072;-84
2023/11/23 03:02:25;;;;;;;10.02;3.75;;;9.90;99.90;;;;;;4925059;29;20454;-84
2023/11/23 03:04:53;;;;;;;13.43;3.58;;;10.20;99.90;;;;;;4930610;29;20123;-84
2023/11/23 03:07:20;;;;;;;14.10;3.38;;;10.10;99.90;;;;;;4926710;29;20047;-84
2023/11/23 03:09:47;;;;;;;14.55;3.47;;;9.90;99.90;;;;;;4914755;29;20032;-84
2023/11/23 03:12:13;;;;;;;12.73;3.45;;;10.00;99.90;;;;;;4927074;29;20059;-84
2023/11/23 03:14:40;;;;;;;13.68;2.53;;;10.10;99.90;;;;;;4919513;29;20048;-84
2023/11/23 03:17:07;;;;;;;20.33;3.33;;;10.00;99.90;;;;;;4933325;29;20054;-84
2023/11/23 03:19:34;;;;;;;12.68;3.05;;;10.20;99.90;;;;;;4927188;29;20072;-84
2023/11/23 03:22:01;;;;;;;11.65;2.45;;;10.20;99.90;;;;;;4914564;29;20597;-84
2023/11/23 03:24:28;;;;;;;11.65;3.05;;;10.20;99.90;;;;;;4914616;29;20044;-84
2023/11/23 03:26:55;;;;;;;9.50;2.10;;;10.30;99.90;;;;;;4925143;29;20059;-83
2023/11/23 03:29:22;;;;;;;15.82;2.95;;;10.60;99.90;;;;;;4933673;29;20100;-84
2023/11/23 03:31:49;;;;;;;15.13;2.42;;;10.50;99.90;;;;;;4918235;29;20049;-83
2023/11/23 03:34:15;;;;;;;9.82;2.33;;;10.60;99.90;;;;;;4918259;29;20044;-84
2023/11/23 03:36:43;;;;;;;9.27;2.80;;;10.40;99.90;;;;;;4933773;29;20040;-84
2023/11/23 03:39:09;;;;;;;14.25;2.65;;;10.40;99.90;;;;;;4933638;29;20053;-83
2023/11/23 03:41:36;;;;;;;12.93;2.40;;;10.40;99.90;;;;;;4917848;29;20127;-84
2023/11/23 03:44:03;;;;;;;7.68;2.38;;;10.70;99.90;;;;;;4926372;29;20087;-83
2023/11/23 03:46:30;;;;;;;18.05;2.95;;;10.40;99.90;;;;;;4934379;29;20040;-84
2023/11/23 03:48:56;;;;;;;11.52;2.72;;;10.50;99.90;;;;;;4927311;29;20044;-84
2023/11/23 03:51:24;;;;;;;15.15;2.78;;;10.50;99.90;;;;;;4921053;29;20108;-84
2023/11/23 03:53:50;;;;;;;13.05;2.63;;;10.50;99.90;;;;;;4917747;29;20040;-84
2023/11/23 03:56:18;;;;;;;12.73;2.53;;;10.60;99.90;;;;;;4936898;29;20063;-84
2023/11/23 03:58:45;;;;;;;11.60;2.17;;;10.50;99.90;;;;;;4936235;29;20044;-84
2023/11/23 04:01:11;;;;;;;6.82;1.98;;;10.50;99.90;;;;;;4919612;29;20056;-84
2023/11/23 04:03:44;;;;;;;9.30;2.17;;;10.60;99.90;;;;;;4933456;29;20051;-84
2023/11/23 04:06:11;;;;;;;12.02;2.58;;;11.20;99.90;;;;;;4921797;29;20183;-84
2023/11/23 04:08:39;;;;;;;9.90;2.05;;;10.60;99.90;;;;;;4926379;29;20055;-83
2023/11/23 04:11:06;;;;;;;11.18;2.10;;;10.60;99.90;;;;;;4917867;29;20044;-84
2023/11/23 04:13:33;;;;;;;12.10;2.55;;;10.70;99.90;;;;;;4924970;29;20070;-84
2023/11/23 04:15:59;;;;;;;10.93;2.50;;;10.60;99.90;;;;;;4936158;29;20747;-83
2023/11/23 04:18:26;;;;;;;13.35;2.60;;;10.60;99.90;;;;;;4936219;29;20051;-84
2023/11/23 04:20:54;;;;;;;10.57;2.22;;;11.10;99.90;;;;;;4920190;29;20044;-83
2023/11/23 04:23:20;;;;;;;12.02;2.35;;;10.60;99.90;;;;;;4927541;29;20044;-84
2023/11/23 04:25:47;;;;;;;11.35;2.70;;;10.60;99.90;;;;;;4923471;29;20091;-84
2023/11/23 04:28:14;;;;;;;12.88;2.25;;;10.70;99.90;;;;;;4924699;29;20494;-84
2023/11/23 04:30:40;;;;;;;10.98;2.45;;;10.60;99.90;;;;;;4916750;29;20041;-84
2023/11/23 04:33:07;;;;;;;11.98;2.88;;;10.60;99.90;;;;;;4921646;29;20059;-84
2023/11/23 04:35:34;;;;;;;13.93;2.58;;;10.60;99.90;;;;;;4930477;29;20605;-84
2023/11/23 04:38:01;;;;;;;13.45;2.65;;;10.60;99.90;;;;;;4926677;29;20051;-84
2023/11/23 04:40:27;;;;;;;11.48;2.38;;;10.60;99.90;;;;;;4919392;29;20115;-84
2023/11/23 04:42:55;;;;;;;12.98;3.03;;;10.60;99.90;;;;;;4921454;29;20051;-84
2023/11/23 04:45:22;;;;;;;11.57;2.13;;;10.60;99.90;;;;;;4923155;29;20099;-84
2023/11/23 04:47:49;;;;;;;11.80;2.40;;;10.60;99.90;;;;;;4918284;29;20481;-84
2023/11/23 04:50:16;;;;;;;16.75;2.53;;;10.60;99.90;;;;;;4933607;29;20048;-84
2023/11/23 04:52:43;;;;;;;14.55;2.83;;;10.60;99.90;;;;;;4935828;29;20048;-84
2023/11/23 04:55:09;;;;;;;13.75;2.30;;;10.60;99.90;;;;;;4933159;29;20516;-84
2023/11/23 04:57:36;;;;;;;11.45;2.22;;;10.60;99.90;;;;;;4925250;29;20044;-84
2023/11/23 05:00:04;;;;;;;11.38;2.30;;;10.60;99.90;;;;;;4936207;29;20040;-84
2023/11/23 05:02:31;;;;;;;11.80;2.63;;;10.60;99.90;;;;;;4911878;29;20056;-84
2023/11/23 05:04:58;;;;;;;12.38;2.45;;;10.60;99.90;;;;;;4935532;29;20040;-84
2023/11/23 05:07:25;;;;;;;11.30;2.60;;;10.60;99.90;;;;;;4935138;29;20077;-84
2023/11/23 05:09:52;;;;;;;9.20;2.40;;;10.60;99.90;;;;;;4927790;29;20549;-84
2023/11/23 05:12:18;;;;;;;11.38;2.45;;;10.50;99.90;;;;;;4933073;29;20123;-83
2023/11/23 05:14:45;;;;;;;14.73;3.17;;;10.50;99.90;;;;;;4922369;29;20047;-84
2023/11/23 05:17:11;;;;;;;11.45;2.50;;;10.80;99.90;;;;;;4922807;29;20041;-84
2023/11/23 05:19:38;;;;;;;10.77;2.20;;;10.60;99.90;;;;;;4935282;29;20104;-84
2023/11/23 05:22:04;;;;;;;15.18;2.67;;;11.00;99.90;;;;;;4922099;29;20045;-84
2023/11/23 05:24:31;;;;;;;15.50;2.55;;;10.50;99.90;;;;;;4931777;29;20454;-84
2023/11/23 05:26:58;;;;;;;9.63;2.65;;;10.70;99.90;;;;;;4915743;29;20088;-84
2023/11/23 05:29:25;;;;;;;10.90;2.22;;;10.50;99.90;;;;;;4916430;29;20044;-84
2023/11/23 05:31:51;;;;;;;15.57;2.70;;;10.80;99.90;;;;;;4916258;29;20052;-84
2023/11/23 05:34:18;;;;;;;13.40;2.42;;;10.40;99.90;;;;;;4916196;29;20044;-84
2023/11/23 05:36:44;;;;;;;13.38;2.40;;;10.50;99.90;;;;;;4922291;29;20127;-83
2023/11/23 05:39:11;;;;;;;12.32;2.22;;;10.50;99.90;;;;;;4926241;29;20047;-84
2023/11/23 05:41:38;;;;;;;8.93;2.15;;;10.50;99.90;;;;;;4918005;29;20051;-84
2023/11/23 05:44:06;;;;;;;17.73;2.38;;;10.50;99.90;;;;;;4934757;29;20044;-84
2023/11/23 05:46:33;;;;;;;14.43;2.28;;;10.50;99.90;;;;;;4918957;29;20051;-84
2023/11/23 05:49:00;;;;;;;18.83;2.95;;;10.50;99.90;;;;;;4915319;29;20049;-84
2023/11/23 05:51:28;;;;;;;12.90;2.85;;;10.40;99.90;;;;;;4934353;29;20543;-83
2023/11/23 05:53:54;;;;;;;17.60;3.13;;;10.90;99.90;;;;;;4924069;29;20088;-84
2023/11/23 05:56:22;;;;;;;17.67;2.60;;;10.50;99.90;;;;;;4923959;29;20056;-84
2023/11/23 05:58:49;;;;;;;17.30;3.38;;;11.00;99.90;;;;;;4933524;29;20047;-84
2023/11/23 06:01:16;;;;;;;12.30;2.75;;;10.60;99.90;;;;;;4917683;29;20088;-84
2023/11/23 06:03:43;;;;;;;12.05;2.53;;;10.50;99.90;;;;;;4918681;29;20498;-84
2023/11/23 06:06:21;;;;;;;12.30;2.63;;;10.50;99.90;;;;;;4915217;29;20074;-83
2023/11/23 06:08:49;;;;;;;17.00;2.85;;;10.60;99.90;;;;;;4926115;29;20075;-84
2023/11/23 06:11:16;;;;;;;14.52;2.50;;;10.60;99.90;;;;;;4937213;29;20107;-84
2023/11/23 06:13:44;;;;;;;9.05;2.10;;;10.60;99.90;;;;;;4934035;29;20147;-84
2023/11/23 06:16:10;;;;;;;12.38;2.35;;;10.60;99.90;;;;;;4915350;29;20057;-83
2023/11/23 06:18:37;;;;;;;9.48;2.33;;;10.60;99.90;;;;;;4919778;29;20048;-84
2023/11/23 06:21:04;;;;;;;13.82;2.78;;;10.70;99.90;;;;;;4936650;29;20047;-84
2023/11/23 06:23:31;;;;;;;14.43;2.45;;;10.60;99.90;;;;;;4919326;29;20043;-84
2023/11/23 06:25:57;;;;;;;11.85;2.78;;;10.60;99.90;;;;;;4931520;29;20040;-83
2023/11/23 06:28:24;;;;;;;10.82;2.15;;;10.60;99.90;;;;;;4915339;29;20104;-84
2023/11/23 06:30:52;;;;;;;12.93;2.97;;;10.70;99.90;;;;;;4927345;29;20036;-84
2023/11/23 06:33:18;;;;;;;13.45;2.40;;;10.60;99.90;;;;;;4929639;29;20725;-83
2023/11/23 06:35:45;;;;;;;14.50;2.60;;;10.70;99.90;;;;;;4921797;29;20051;-83
2023/11/23 06:38:11;;;;;;;12.10;3.03;;;10.60;99.90;;;;;;4908606;29;20053;-84
2023/11/23 06:40:38;;;;;;;15.40;2.55;;;10.70;99.90;;;;;;4933634;29;20493;-84
2023/11/23 06:43:05;;;;;;;16.15;2.92;;;10.70;99.90;;;;;;4921345;29;20184;-84
2023/11/23 06:45:32;;;;;;;12.73;2.35;;;10.60;99.90;;;;;;4925646;29;20506;-84
2023/11/23 06:47:59;;;;;;;11.25;2.92;;;10.60;99.90;;;;;;4910998;29;20059;-84
2023/11/23 06:50:25;;;;;;;17.00;2.85;;;10.80;99.90;;;;;;4911415;29;20040;-84
2023/11/23 06:52:52;;;;;;;17.23;2.92;;;10.60;99.90;;;;;;4916423;29;20045;-84
2023/11/23 06:55:18;;;;;;;12.90;2.78;;;10.70;99.90;;;;;;4933661;29;20048;-84
2023/11/23 06:57:48;;;;;;;15.25;3.03;;;10.60;99.90;;;;;;4933736;29;20048;-83
2023/11/23 07:00:22;;;;;;;13.10;2.33;;;10.70;99.90;;;;;;4923760;29;20051;-84
2023/11/23 07:02:59;;;;;;;11.98;2.92;;;10.70;99.90;;;;;;4918326;29;20414;-84
2023/11/23 07:05:26;;;;;;;11.45;2.63;;;10.70;99.90;;;;;;4934191;29;20076;-84
2023/11/23 07:07:54;;;;;;;16.20;2.75;;;10.70;99.90;;;;;;4918486;29;20103;-84
2023/11/23 07:10:21;;;;;;;8.02;2.28;;;10.70;99.90;;;;;;4933892;29;20164;-83
2023/11/23 07:12:47;;;;;;;18.27;2.90;;;11.10;99.90;;;;;;4931623;29;20564;-83
2023/11/23 07:15:14;;;;;;;9.13;2.45;;;10.80;99.90;;;;;;4937129;29;20131;-83
2023/11/23 07:17:42;;;;;;;13.90;2.45;;;10.70;99.90;;;;;;4924756;29;20044;-84
2023/11/23 07:20:11;;;;;;;16.35;2.78;;;10.80;99.90;;;;;;4948893;29;20055;-83
2023/11/23 07:22:41;;;;;;;12.93;2.53;;;10.80;99.90;;;;;;4925014;29;20041;-84
2023/11/23 07:25:11;;;;;;;11.88;2.92;;;10.80;99.90;;;;;;4917752;29;20100;-83
2023/11/23 07:27:38;;;;;;;8.82;2.40;;;10.80;99.90;;;;;;4930371;29;20054;-84
2023/11/23 07:30:08;;;;;;;12.85;3.20;;;10.80;99.90;;;;;;4918013;29;20516;-83
2023/11/23 07:32:35;;;;;;;13.85;2.42;;;10.80;99.90;;;;;;4933407;29;20120;-83
2023/11/23 07:35:03;;;;;;;14.07;2.70;;;10.80;99.90;;;;;;4931853;29;20044;-84
2023/11/23 07:37:30;;;;;;;13.20;2.78;;;10.90;99.90;;;;;;4920827;29;20048;-84
2023/11/23 07:39:56;;;;;;;9.05;2.10;;;10.90;99.90;;;;;;4920778;29;20055;-84
2023/11/23 07:42:25;;;;;;;8.25;2.15;;;10.90;99.90;;;;;;4920891;29;20044;-84
2023/11/23 07:44:51;;;;;;;9.38;2.33;;;11.00;99.90;;;;;;4940952;29;20056;-83
2023/11/23 07:47:19;;;;;;;14.73;2.47;;;10.90;99.90;;;;;;4934854;29;20815;-84
2023/11/23 07:49:46;;;;;;;9.05;2.20;;;11.40;99.90;;;;;;4922310;29;22039;-83
2023/11/23 07:52:13;;;;;;;10.80;2.58;;;10.90;99.90;;;;;;4920200;29;20072;-84
2023/11/23 07:54:41;;;;;;;11.30;2.15;;;11.00;99.90;;;;;;4920149;29;20174;-84
2023/11/23 07:57:08;;;;;;;12.63;1.95;;;11.00;99.90;;;;;;4936584;29;20064;-83
2023/11/23 07:59:36;;;;;;;19.27;2.13;;;11.00;99.90;;;;;;4943853;29;20143;-84
2023/11/23 08:02:04;;;;;;;9.32;2.35;;;11.00;99.90;;;;;;4939187;29;20067;-83
2023/11/23 08:04:31;;;;;;;10.88;2.50;;;11.00;99.90;;;;;;4937205;29;20524;-83
2023/11/23 08:06:57;;;;;;;11.35;2.00;;;11.00;99.90;;;;;;4917364;29;20041;-83
2023/11/23 08:09:24;;;;;;;12.07;2.03;;;11.10;99.90;;;;;;4917315;29;20040;-84
2023/11/23 08:11:55;;;;;;;10.00;2.28;;;11.40;99.90;;;;;;4919695;29;20044;-84
2023/11/23 08:14:22;;;;;;;10.82;2.38;;;11.10;99.90;;;;;;4920697;29;20528;-84
2023/11/23 08:16:49;;;;;;;10.95;2.00;;;11.20;99.90;;;;;;4932196;29;20045;-83
2023/11/23 08:19:16;;;;;;;10.07;1.80;;;11.20;99.90;;;;;;4921693;29;20048;-84
2023/11/23 08:21:42;;;;;;;10.75;2.20;;;11.10;99.90;;;;;;4924340;29;20120;-83
2023/11/23 08:24:09;;;;;;;18.75;2.42;;;11.10;99.90;;;;;;4919303;29;20059;-83
2023/11/23 08:26:36;;;;;;;10.40;2.45;;;11.20;99.90;;;;;;4922320;29;20048;-84
2023/11/23 08:29:05;;;;;;;7.28;1.73;;;11.20;99.90;;;;;;4922262;29;20127;-83
2023/11/23 08:31:31;;;;;;;10.55;1.85;;;11.20;99.90;;;;;;4916680;29;20120;-84
2023/11/23 08:33:58;;;;;;;12.93;2.38;;;11.20;99.90;;;;;;4920981;29;20901;-84
2023/11/23 08:36:25;;;;;;;11.45;2.20;;;11.70;99.90;;;;;;4922413;29;20451;-83
2023/11/23 08:38:52;;;;;;;8.70;1.77;;;11.20;99.90;;;;;;4934608;29;20510;-82
2023/11/23 08:41:18;;;;;;;7.13;1.65;;;11.60;99.90;;;;;;4923200;29;20040;-83
2023/11/23 08:43:47;;;;;;;9.77;1.83;;;11.30;99.90;;;;;;4927762;29;20041;-82
2023/11/23 08:46:14;;;;;;;12.27;2.03;;;11.30;99.90;;;;;;4924124;29;20047;-82
2023/11/23 08:48:41;;;;;;;9.52;2.10;;;11.50;99.90;;;;;;4922626;29;20409;-83
2023/11/23 08:51:08;;;;;;;8.27;2.00;;;11.60;99.90;;;;;;4909093;29;20032;-83
2023/11/23 08:53:41;;;;;;;9.95;1.98;;;11.30;99.90;;;;;;4917270;29;20048;-83
2023/11/23 08:56:08;;;;;;;7.22;1.75;;;11.40;99.90;;;;;;4919044;29;20120;-83
2023/11/23 08:58:35;;;;;;;10.00;2.63;;;11.50;99.90;;;;;;4934601;29;20091;-83
2023/11/23 09:01:01;;;;;;;11.43;2.42;;;11.40;99.90;;;;;;4914526;29;20135;-84
2023/11/23 09:03:28;;;;;;;7.38;2.10;;;11.60;99.90;;;;;;4931675;29;20041;-83
2023/11/23 09:05:55;;;;;;;10.57;1.83;;;11.50;99.90;;;;;;4931923;29;20128;-85
2023/11/23 09:08:22;;;;;;;8.57;1.73;;;11.50;99.90;;;;;;4929763;29;20521;-84
2023/11/23 09:10:48;;;;;;;10.60;1.92;;;11.60;99.90;;;;;;4928575;29;20032;-85
2023/11/23 09:13:15;;;;;;;8.48;2.00;;;11.90;99.90;;;;;;4916488;29;20044;-84
2023/11/23 09:15:42;;;;;;;10.48;1.75;;;11.70;99.90;;;;;;4932026;29;20048;-84
2023/11/23 09:18:09;;;;;;;9.55;1.80;;;11.70;99.90;;;;;;4931294;29;20040;-84
2023/11/23 09:20:35;;;;;;;5.75;1.60;;;11.80;99.90;;;;;;4933171;29;20124;-85
2023/11/23 09:23:03;;;;;;;10.15;1.98;;;11.80;99.90;;;;;;4934987;29;20104;-84
2023/11/23 09:25:33;;;;;;;8.05;1.40;;;11.80;99.90;;;;;;4915184;29;20100;-84
2023/11/23 09:28:00;;;;;;;15.15;2.65;;;11.80;99.90;;;;;;4916021;29;20037;-84
2023/11/23 09:30:27;;;;;;;10.65;2.08;;;11.80;99.90;;;;;;4923782;29;20104;-84
2023/11/23 09:32:53;;;;;;;13.80;1.88;;;11.80;99.90;;;;;;4931124;29;20044;-84
2023/11/23 09:35:20;;;;;;;8.85;1.80;;;11.80;99.90;;;;;;4925483;29;20561;-84
2023/11/23 09:37:47;;;;;;;7.18;1.80;;;11.90;99.90;;;;;;4914607;29;20474;-84
2023/11/23 09:40:18;;;;;;;8.38;1.83;;;11.90;99.90;;;;;;4913836;29;20044;-84
2023/11/23 09:42:47;;;;;;;8.02;2.22;;;11.90;99.90;;;;;;4929697;29;20037;-84
2023/11/23 09:45:18;;;;;;;10.20;1.90;;;12.60;99.90;;;;;;4927086;29;20040;-84
2023/11/23 09:47:48;;;;;;;10.85;2.28;;;12.00;99.90;;;;;;4904346;29;20052;-84
2023/11/23 09:50:15;;;;;;;12.07;2.08;;;11.90;99.90;;;;;;4915744;29;20131;-85
2023/11/23 09:52:44;;;;;;;9.30;2.00;;;12.00;99.90;;;;;;4915508;29;20084;-84
2023/11/23 09:55:18;;;;;;;9.48;2.10;;;12.00;99.90;;;;;;4912096;29;20087;-83
2023/11/23 09:57:45;;;;;;;11.63;2.00;;;12.00;99.90;;;;;;4932445;29;20086;-82
2023/11/23 10:00:14;;;;;;;8.35;1.73;;;12.10;99.90;;;;;;4906306;29;20560;-83
2023/11/23 10:02:49;;;;;;;11.88;2.47;;;12.10;99.90;;;;;;4915568;29;20053;-82
2023/11/23 10:05:17;;;;;;;8.65;2.05;;;12.10;99.90;;;;;;4939691;29;20446;-82
2023/11/23 10:07:44;;;;;;;8.05;1.63;;;12.10;99.90;;;;;;4912822;29;20041;-83
2023/11/23 10:10:12;;;;;;;7.30;1.73;;;12.10;99.90;;;;;;4916703;29;20398;-83
2023/11/23 10:12:40;;;;;;;8.25;1.48;;;12.10;99.90;;;;;;4915617;29;20047;-84
2023/11/23 10:15:09;;;;;;;9.82;1.65;;;12.10;99.90;;;;;;4915588;29;20418;-85
2023/11/23 10:17:37;;;;;;;10.80;1.80;;;12.20;99.90;;;;;;4931070;29;20099;-84
2023/11/23 10:20:17;;;;;;;11.70;1.90;;;12.10;99.90;;;;;;4915499;29;20036;-83
2023/11/23 10:22:45;;;;;;;9.38;1.90;;;12.20;99.90;;;;;;4915526;29;20095;-84
2023/11/23 10:25:24;;;;;;;11.80;1.77;;;12.30;99.90;;;;;;4915430;29;20498;-84
2023/11/23 10:27:52;;;;;;;13.18;2.00;;;12.50;99.90;;;;;;4926728;29;20044;-84
2023/11/23 10:30:19;;;;;;;8.60;1.75;;;12.40;99.90;;;;;;4904580;29;20418;-84
2023/11/23 10:32:49;;;;;;;8.63;1.73;;;12.40;99.90;;;;;;4925894;29;20052;-84
2023/11/23 10:35:17;;;;;;;8.20;1.88;;;12.40;99.90;;;;;;4915224;29;20052;-85
2023/11/23 10:37:53;;;;;;;8.27;1.48;;;12.40;99.90;;;;;;4915200;29;20498;-85
2023/11/23 10:40:21;;;;;;;7.97;1.70;;;12.50;99.90;;;;;;4918408;29;20041;-86
2023/11/23 10:42:53;;;;;;;9.75;1.70;;;12.50;99.90;;;;;;4913234;29;20063;-84
2023/11/23 10:45:23;;;;;;;9.75;1.85;;;12.60;99.90;;;;;;4915312;29;20045;-84
2023/11/23 10:47:53;;;;;;;9.20;1.65;;;12.70;99.90;;;;;;4937404;29;20052;-84
2023/11/23 10:50:20;;;;;;;9.07;2.05;;;12.70;99.90;;;;;;4933672;29;20069;-84
2023/11/23 10:52:47;;;;;;;8.45;1.40;;;12.60;99.90;;;;;;4915151;29;20593;-84
2023/11/23 10:55:15;;;;;;;7.85;1.50;;;12.50;99.90;;;;;;4915350;29;20135;-84
2023/11/23 10:57:46;;;;;;;10.40;2.08;;;12.60;99.90;;;;;;4915323;29;20132;-83
2023/11/23 11:00:23;;;;;;;11.32;2.10;;;12.80;99.90;;;;;;4898587;29;20100;-86
2023/11/23 11:02:54;;;;;;;9.88;1.73;;;12.60;99.90;;;;;;4924082;29;20055;-84
2023/11/23 11:05:35;;;;;;;6.40;1.65;;;12.60;99.90;;;;;;4932268;29;20039;-82
2023/11/23 11:08:07;;;;;;;10.40;1.40;;;12.60;99.90;;;;;;4916847;29;20067;-85
2023/11/23 11:10:50;;;;;;;10.20;1.67;;;12.70;99.90;;;;;;4924453;29;20063;-84
2023/11/23 11:13:29;;;;;;;5.22;1.35;;;12.60;99.90;;;;;;4915189;29;20406;-83
2023/11/23 11:15:59;;;;;;;9.40;1.60;;;12.70;99.90;;;;;;4930774;29;20096;-83
2023/11/23 11:18:31;;;;;;;10.77;2.03;;;12.70;99.90;;;;;;4936776;29;20117;-85
2023/11/23 11:21:07;;;;;;;10.80;1.92;;;12.70;99.90;;;;;;4920513;29;20048;-84
2023/11/23 11:23:36;;;;;;;;;;;12.70;99.90;;;;;;4931382;29;20051;-83
2023/11/23 11:26:14;;;;;;;7.55;2.13;;;12.70;99.90;;;;;;4915193;29;20317;-82
2023/11/23 11:28:41;;;;;;;7.95;1.60;;;12.80;99.90;;;;;;4914853;29;20075;-83
2023/11/23 11:31:13;;;;;;;12.30;1.83;;;12.80;99.90;;;;;;4914049;29;20115;-82
2023/11/23 11:33:40;;;;;;;6.50;1.33;;;12.70;99.90;;;;;;4914317;29;20072;-84
2023/11/23 11:36:08;;;;;;;5.10;1.58;;;12.70;99.90;;;;;;4927235;29;20506;-85
2023/11/23 11:38:36;;;;;;;8.10;1.55;;;12.70;99.90;;;;;;4913995;29;20048;-85
2023/11/23 11:41:07;;;;;;;8.07;1.50;;;12.70;99.90;;;;;;4923134;29;20092;-87
2023/11/23 11:43:34;;;;;;;8.25;2.08;;;12.70;99.90;;;;;;4919839;29;20072;-84
2023/11/23 11:46:03;;;;;;;7.88;1.52;;;12.70;99.90;;;;;;4925785;29;20072;-85
2023/11/23 11:48:29;;;;;;;10.85;1.83;;;12.70;99.90;;;;;;4918538;29;20043;-85
2023/11/23 11:50:56;;;;;;;10.20;2.25;;;12.70;99.90;;;;;;4922959;29;20041;-85
2023/11/23 11:53:23;;;;;;;13.55;2.45;;;12.70;99.90;;;;;;4919941;29;20055;-86
2023/11/23 11:55:53;;;;;;;5.75;1.50;;;12.70;99.90;;;;;;4917677;29;20041;-85
2023/11/23 11:58:20;;;;;;;11.02;2.33;;;12.70;99.90;;;;;;4923954;29;20750;-84
2023/11/23 12:00:47;;;;;;;9.48;1.88;;;12.80;99.90;;;;;;4920524;29;20057;-85
2023/11/23 12:03:14;;;;;;;11.30;1.95;;;12.80;99.90;;;;;;4920084;29;20041;-85
2023/11/23 12:05:42;;;;;;;9.43;1.80;;;12.80;99.90;;;;;;4917643;29;20497;-84
2023/11/23 12:08:09;;;;;;;8.32;1.80;;;12.80;99.90;;;;;;4905258;29;20550;-83
2023/11/23 12:10:39;;;;;;;10.52;1.73;;;12.80;99.90;;;;;;4917328;29;20104;-86
2023/11/23 12:13:14;;;;;;;8.82;1.60;;;12.80;99.90;;;;;;4932312;29;20091;-86
2023/11/23 12:15:42;;;;;;;6.95;1.70;;;12.80;99.90;;;;;;4928354;29;20064;-86
2023/11/23 12:18:08;;;;;;;9.68;1.90;;;13.00;99.90;;;;;;4937965;29;20120;-86
2023/11/23 12:20:36;;;;;;;9.95;1.92;;;12.90;99.90;;;;;;4919236;29;20131;-85
2023/11/23 12:23:04;;;;;;;13.07;2.50;;;13.00;99.90;;;;;;4946068;29;20083;-86
2023/11/23 12:25:33;;;;;;;12.82;2.15;;;13.00;99.90;;;;;;4925705;29;20118;-86
2023/11/23 12:28:02;;;;;;;8.68;1.80;;;13.00;99.90;;;;;;4922934;29;20048;-87
2023/11/23 12:30:29;;;;;;;12.10;2.20;;;12.90;99.90;;;;;;4927512;29;20049;-86
2023/11/23 12:32:58;;;;;;;12.30;1.95;;;12.90;99.90;;;;;;4932735;29;20404;-85
2023/11/23 12:35:24;;;;;;;8.60;1.65;;;12.90;99.90;;;;;;4923212;29;20043;-86
2023/11/23 12:37:52;;;;;;;12.23;2.20;;;12.90;99.90;;;;;;4924323;29;20044;-86
2023/11/23 12:40:18;;;;;;;10.23;2.00;;;12.90;99.90;;;;;;4921643;29;20032;-86
2023/11/23 12:42:47;;;;;;;6.57;1.60;;;13.40;99.90;;;;;;4927558;29;20044;-86